Inspiration — C6FM5 — position and weather

sailwx.info

Track history (hours):
 
Tides and Currents Weather Stations Pressure Air Temp Water Temp Dewpoint Dewpoint Depression Visibility Wind Speed Wind Dir Waves Ship Positions

Inspiration

Operator: Carnival Cruise Lines

Last reported at 2017-Jul-22 12:30 UTC. Time now 2017-Jul-22 12:36 UTC.
Position N 31°56' W 116°58'.

Type: Ship. MMSI: 309484000.

Date/timePositionNaut miles runAvg speedWind from/ knotsBaromVisibWave heightAir tempDewpointWater temp
2017-Jul-22 12:30N 31°56' W 116°58'713.5
2017-Jul-22 12:00N 31°59' W 117°06'713.2
2017-Jul-22 11:30N 32°02' W 117°13'613.1
2017-Jul-22 11:01N 32°05' W 117°20'713.1
2017-Jul-22 10:30N 32°07' W 117°27'713.2
2017-Jul-22 10:00N 32°11' W 117°33'713.2
2017-Jul-22 09:31N 32°17' W 117°37'713.4
2017-Jul-22 09:00N 32°23' W 117°39'713.2
2017-Jul-22 08:30N 32°29' W 117°42'611.9
2017-Jul-22 08:00N 32°35' W 117°45'510.5
2017-Jul-22 07:30N 32°39' W 117°47'510.6
2017-Jul-22 07:00N 32°44' W 117°50'510.9
2017-Jul-22 06:30N 32°49' W 117°52'611.1
2017-Jul-22 06:00N 32°55' W 117°54'143.7
2017-Jul-22 06:00N 32°54' W 117°54'612.9 200 / 5 10.8 21.019.520.0
2017-Jul-22 05:31N 32°60' W 117°57'611.3
2017-Jul-22 05:01N 33°05' W 117°59'611.4
2017-Jul-22 04:31N 33°10' W 118°02'611.3
2017-Jul-22 04:01N 33°16' W 118°04'611.0
2017-Jul-22 03:31N 33°21' W 118°07'510.7
2017-Jul-22 03:01N 33°26' W 118°09'510.8
2017-Jul-22 02:31N 33°31' W 118°11'510.9
2017-Jul-22 02:00N 33°36' W 118°13'510.1
2017-Jul-22 01:30N 33°41' W 118°12'4 7.6
2017-Jul-22 01:00N 33°45' W 118°11'0 0.6
2017-Jul-22 00:30N 33°45' W 118°11'0 0.0
2017-Jul-22 00:00N 33°45' W 118°11'0 0.0
2017-Jul-21 23:26N 33°45' W 118°11'0 0.0
2017-Jul-21 22:59N 33°45' W 118°11'0 0.0
2017-Jul-21 22:29N 33°45' W 118°11'0 0.0
2017-Jul-21 21:59N 33°45' W 118°11'0 0.0
2017-Jul-21 21:29N 33°45' W 118°11'0 0.0
2017-Jul-21 20:58N 33°45' W 118°11'0 0.0
2017-Jul-21 20:25N 33°45' W 118°11'0 0.0
2017-Jul-21 19:55N 33°45' W 118°11'0 0.0
2017-Jul-21 19:22N 33°45' W 118°11'0 0.0
2017-Jul-21 18:36N 33°45' W 118°11'0 0.0
2017-Jul-21 18:30N 33°45' W 118°11'0 0.0
2017-Jul-21 18:00N 33°45' W 118°11'0 0.0
2017-Jul-21 17:24N 33°45' W 118°11'0 0.0
2017-Jul-21 17:00N 33°45' W 118°11'0 0.0
2017-Jul-21 16:29N 33°45' W 118°11'0 0.0
2017-Jul-21 15:59N 33°45' W 118°11'0 0.0
2017-Jul-21 15:23N 33°45' W 118°11'0 0.0
2017-Jul-21 14:59N 33°45' W 118°11'0 0.0
2017-Jul-21 14:29N 33°45' W 118°11'0 0.0
2017-Jul-21 13:58N 33°45' W 118°11'0 0.0
2017-Jul-21 13:28N 33°45' W 118°11'0 0.0
2017-Jul-21 12:58N 33°45' W 118°11'0 0.1
2017-Jul-21 12:30N 33°45' W 118°11'1 1.9
2017-Jul-21 12:00N 33°44' W 118°11'5 9.0
2017-Jul-21 11:30N 33°40' W 118°10'4 8.2
2017-Jul-21 11:00N 33°36' W 118°10'4 7.6
2017-Jul-21 10:30N 33°32' W 118°08'4 7.6
2017-Jul-21 10:01N 33°28' W 118°07'4 7.8
2017-Jul-21 09:30N 33°25' W 118°05'4 7.8
2017-Jul-21 09:01N 33°21' W 118°03'4 8.3
2017-Jul-21 08:30N 33°17' W 118°02'4 8.4
2017-Jul-21 08:01N 33°13' W 118°00'4 7.8
2017-Jul-21 07:30N 33°09' W 117°58'4 7.9
2017-Jul-21 07:00N 33°06' W 117°57'4 7.5
2017-Jul-21 06:30N 33°02' W 117°56'4 7.4
2017-Jul-21 06:00N 32°59' W 117°54'5288.7
2017-Jul-21 06:00N 32°54' W 117°54'2 3.6 300 / 121015.2 5.4 18.014.819.0
2017-Jul-21 05:30N 32°55' W 117°53'4 7.4
2017-Jul-21 05:00N 32°52' W 117°51'4 7.4
2017-Jul-21 04:31N 32°48' W 117°49'4 7.4
2017-Jul-21 04:00N 32°45' W 117°48'4 7.8
2017-Jul-21 03:30N 32°41' W 117°46'4 8.0
2017-Jul-21 03:00N 32°37' W 117°44'4 8.0
2017-Jul-21 02:30N 32°34' W 117°43'4 7.8
2017-Jul-21 02:00N 32°30' W 117°42'4 7.8
2017-Jul-21 01:30N 32°26' W 117°40'4 7.7
2017-Jul-21 01:00N 32°23' W 117°39'4 7.6
2017-Jul-21 00:30N 32°19' W 117°37'4 7.4
2017-Jul-21 00:00N 32°16' W 117°35'4 7.9
2017-Jul-20 23:30N 32°13' W 117°32'4 8.4
2017-Jul-20 23:00N 32°10' W 117°29'4 8.1
2017-Jul-20 22:30N 32°06' W 117°26'4 8.1
2017-Jul-20 22:00N 32°03' W 117°23'4 7.6
2017-Jul-20 21:30N 32°00' W 117°20'3 7.0
2017-Jul-20 21:00N 31°57' W 117°18'3 6.5
2017-Jul-20 20:30N 31°55' W 117°15'3 6.3
2017-Jul-20 20:00N 31°52' W 117°14'4 7.5
2017-Jul-20 19:30N 31°49' W 117°18'4 7.9
2017-Jul-20 19:00N 31°48' W 117°22'4 8.1
2017-Jul-20 18:30N 31°47' W 117°27'4 7.9
2017-Jul-20 18:00N 31°46' W 117°31'510.2
2017-Jul-20 17:30N 31°44' W 117°37'510.5
2017-Jul-20 17:00N 31°43' W 117°43'6361.5
2017-Jul-20 17:00N 31°42' W 117°36'1122.5 340 / 101018.3 5.4 19.015.919.0
2017-Jul-20 16:30N 31°41' W 117°49'510.3
2017-Jul-20 16:00N 31°40' W 117°55'510.2
2017-Jul-20 15:30N 31°38' W 118°00'4 7.6
2017-Jul-20 15:00N 31°37' W 118°05'7 7.1
2017-Jul-20 14:00N 31°35' W 118°12'4 7.2
2017-Jul-20 13:30N 31°34' W 118°17'3 5.5
2017-Jul-20 13:00N 31°31' W 118°17'3 6.9
2017-Jul-20 12:30N 31°31' W 118°13'3 7.0
2017-Jul-20 12:00N 31°31' W 118°09'4 7.1
2017-Jul-20 11:30N 31°31' W 118°05'4 7.4
2017-Jul-20 11:00N 31°31' W 118°00'4 7.7
2017-Jul-20 10:30N 31°31' W 117°56'4 7.9
2017-Jul-20 10:00N 31°31' W 117°51'4 7.7
2017-Jul-20 09:30N 31°35' W 117°50'4 8.4
2017-Jul-20 09:00N 31°38' W 117°53'4 8.2
2017-Jul-20 08:30N 31°41' W 117°55'4 7.3
2017-Jul-20 08:00N 31°45' W 117°53'4 7.8
2017-Jul-20 07:30N 31°45' W 117°49'5 9.8
2017-Jul-20 07:00N 31°46' W 117°43'510.6
2017-Jul-20 06:30N 31°46' W 117°37'510.9
2017-Jul-20 06:00N 31°47' W 117°31'510.7
2017-Jul-20 05:30N 31°47' W 117°24'510.6
2017-Jul-20 05:00N 31°48' W 117°18'6372.9
2017-Jul-20 05:00N 31°42' W 117°18'817.0 280 / 51018.310.8 20.016.920.0
2017-Jul-20 04:31N 31°48' W 117°12'510.3
2017-Jul-20 04:00N 31°49' W 117°06'510.3
2017-Jul-20 03:30N 31°49' W 116°60'610.3
2017-Jul-20 02:54N 31°50' W 116°53'410.5
2017-Jul-20 02:30N 31°50' W 116°48'510.2
2017-Jul-20 01:59N 31°50' W 116°42'2 0.2
2017-Jul-19 13:56N 31°50' W 116°39'4 9.2
2017-Jul-19 13:30N 31°50' W 116°43'510.0
2017-Jul-19 13:00N 31°53' W 116°48'5 9.6
2017-Jul-19 12:30N 31°55' W 116°53'5 9.6
2017-Jul-19 12:00N 31°56' W 116°59'510.1
2017-Jul-19 11:30N 31°57' W 117°04'510.0
2017-Jul-19 11:00N 31°59' W 117°10'4 8.6
2017-Jul-19 10:30N 31°60' W 117°15'4 8.0
2017-Jul-19 10:00N 32°01' W 117°19'4 8.7
2017-Jul-19 09:30N 32°04' W 117°23'4 8.9
2017-Jul-19 09:00N 32°07' W 117°28'4 8.5
2017-Jul-19 08:30N 32°09' W 117°32'5 9.2
2017-Jul-19 08:00N 32°13' W 117°35'5 9.8
2017-Jul-19 07:30N 32°17' W 117°38'5 9.8
2017-Jul-19 07:00N 32°21' W 117°40'5 9.7
2017-Jul-19 06:30N 32°26' W 117°43'5 9.6
2017-Jul-19 06:00N 32°30' W 117°45'5 9.4
2017-Jul-19 05:30N 32°34' W 117°48'5 9.3
2017-Jul-19 05:00N 32°38' W 117°50'5 9.7
2017-Jul-19 04:30N 32°43' W 117°53'5 9.8
2017-Jul-19 04:00N 32°47' W 117°56'5 9.9
2017-Jul-19 03:30N 32°51' W 117°58'510.0
2017-Jul-19 03:00N 32°56' W 118°01'510.2
2017-Jul-19 02:30N 33°01' W 118°03'510.2
2017-Jul-19 02:00N 33°05' W 118°06'510.1
2017-Jul-19 01:30N 33°09' W 118°09'510.0
2017-Jul-19 01:00N 33°14' W 118°12'5 9.9
2017-Jul-19 00:30N 33°18' W 118°15'4 8.7
2017-Jul-19 00:00N 33°21' W 118°19'0 0.3
2017-Jul-18 23:30N 33°21' W 118°19'0 0.0
2017-Jul-18 23:00N 33°21' W 118°19'0 0.1
2017-Jul-18 22:30N 33°21' W 118°19'0 0.1
2017-Jul-18 22:00N 33°21' W 118°19'0 0.0
2017-Jul-18 21:30N 33°21' W 118°19'0 0.1
2017-Jul-18 21:00N 33°21' W 118°19'0 0.0
2017-Jul-18 20:30N 33°21' W 118°19'0 0.0
2017-Jul-18 20:00N 33°21' W 118°19'0 0.0
2017-Jul-18 19:30N 33°21' W 118°19'0 0.0
2017-Jul-18 19:00N 33°21' W 118°19'0 0.0
2017-Jul-18 18:30N 33°21' W 118°19'0 0.1
2017-Jul-18 18:00N 33°21' W 118°19'3204.3
2017-Jul-18 18:00N 33°18' W 118°18'3 6.4 340 / 21018.310.8 23.018.523.0
2017-Jul-18 17:30N 33°21' W 118°19'0 0.0
2017-Jul-18 17:00N 33°21' W 118°19'0 0.1
2017-Jul-18 16:30N 33°21' W 118°19'0 0.1
2017-Jul-18 16:00N 33°21' W 118°19'0 0.0
2017-Jul-18 15:30N 33°21' W 118°19'0 0.0
2017-Jul-18 15:00N 33°21' W 118°19'0 0.1
2017-Jul-18 14:00N 33°21' W 118°19'3 6.4
2017-Jul-18 13:30N 33°18' W 118°17'4 7.9
2017-Jul-18 13:00N 33°14' W 118°16'4 8.3
2017-Jul-18 12:30N 33°10' W 118°16'4 8.1
2017-Jul-18 12:00N 33°06' W 118°15'4 8.0
2017-Jul-18 11:30N 33°03' W 118°12'4 8.3
2017-Jul-18 11:00N 32°60' W 118°09'4 8.3
2017-Jul-18 10:30N 32°56' W 118°07'4 8.3
2017-Jul-18 10:00N 32°53' W 118°04'4 8.1
2017-Jul-18 09:30N 32°50' W 118°01'4 7.5
2017-Jul-18 09:00N 32°47' W 117°58'4 7.2
2017-Jul-18 08:30N 32°49' W 117°54'4 7.8
2017-Jul-18 08:00N 32°53' W 117°55'4 8.2
2017-Jul-18 07:30N 32°57' W 117°57'4 8.3
2017-Jul-18 07:00N 33°01' W 117°58'4 8.1
2017-Jul-18 06:30N 33°04' W 118°00'4 8.1
2017-Jul-18 06:00N 33°08' W 118°02'8564.7
2017-Jul-18 06:00N 33°00' W 118°00'1225.3 190 / 51015.2 5.4
2017-Jul-18 05:30N 33°12' W 118°03'4 7.6
2017-Jul-18 05:00N 33°15' W 118°05'4 7.6
2017-Jul-18 04:30N 33°19' W 118°07'4 8.0
2017-Jul-18 04:00N 33°22' W 118°09'4 7.8
2017-Jul-18 03:30N 33°26' W 118°10'4 7.7
2017-Jul-18 03:00N 33°30' W 118°11'4 8.4
2017-Jul-18 02:30N 33°34' W 118°13'510.0
2017-Jul-18 02:00N 33°39' W 118°12'4 8.9
2017-Jul-18 01:30N 33°43' W 118°11'2 3.5
2017-Jul-18 00:59N 33°45' W 118°11'0 0.0
2017-Jul-18 00:29N 33°45' W 118°11'0 0.0
2017-Jul-17 23:59N 33°45' W 118°11'0 0.0
2017-Jul-17 23:29N 33°45' W 118°11'0 0.0
2017-Jul-17 22:54N 33°45' W 118°11'0 0.0
2017-Jul-17 22:28N 33°45' W 118°11'0 0.0
2017-Jul-17 21:52N 33°45' W 118°11'0 0.0
2017-Jul-17 21:28N 33°45' W 118°11'0 0.0
2017-Jul-17 20:58N 33°45' W 118°11'0 0.0
2017-Jul-17 20:30N 33°45' W 118°11'0 0.0
2017-Jul-17 20:00N 33°45' W 118°11'0 0.0
2017-Jul-17 19:30N 33°45' W 118°11'0 0.0
2017-Jul-17 19:00N 33°45' W 118°11'0 0.0
2017-Jul-17 18:05N 33°45' W 118°11'0 0.0
2017-Jul-17 17:59N 33°45' W 118°11'0 0.0
2017-Jul-17 17:29N 33°45' W 118°11'0 0.0
2017-Jul-17 16:59N 33°45' W 118°11'0 0.0
2017-Jul-17 16:29N 33°45' W 118°11'0 0.0
2017-Jul-17 15:59N 33°45' W 118°11'0 0.0
2017-Jul-17 15:19N 33°45' W 118°11'0 0.0
2017-Jul-17 14:58N 33°45' W 118°11'0 0.0
2017-Jul-17 14:28N 33°45' W 118°11'0 0.0
2017-Jul-17 13:58N 33°45' W 118°11'0 0.0
2017-Jul-17 13:24N 33°45' W 118°11'0 0.0
2017-Jul-17 12:57N 33°45' W 118°11'0 0.3
2017-Jul-17 12:29N 33°45' W 118°11'1 2.1
2017-Jul-17 12:00N 33°44' W 118°11'5 9.5
2017-Jul-17 11:28N 33°39' W 118°10'4 7.6
2017-Jul-17 11:00N 33°35' W 118°10'3 7.0
2017-Jul-17 10:30N 33°32' W 118°08'4 7.3
2017-Jul-17 10:00N 33°29' W 118°07'4 7.8
2017-Jul-17 09:30N 33°25' W 118°05'4 7.9
2017-Jul-17 09:00N 33°21' W 118°04'4257.9
2017-Jul-17 09:00N 33°24' W 118°00'713.5 180 / 101018.310.8 19.015.919.0
2017-Jul-17 08:30N 33°18' W 118°02'4 8.2
2017-Jul-17 08:00N 33°14' W 118°00'4 7.7
2017-Jul-17 07:30N 33°10' W 117°59'4 8.8
2017-Jul-17 07:00N 33°06' W 117°57'4 8.6
2017-Jul-17 06:30N 33°02' W 117°55'4 8.3
2017-Jul-17 06:00N 32°58' W 117°53'6390.1
2017-Jul-17 06:00N 32°54' W 117°48'3 6.5 120 / 51016.2 5.4 18.014.821.0
2017-Jul-17 05:30N 32°54' W 117°52'4 7.2
2017-Jul-17 05:00N 32°51' W 117°50'4 7.2
2017-Jul-17 04:30N 32°48' W 117°49'4 7.2
2017-Jul-17 04:00N 32°44' W 117°47'4 7.1
2017-Jul-17 03:30N 32°41' W 117°46'4 7.5
2017-Jul-17 03:00N 32°37' W 117°45'4 7.6
2017-Jul-17 02:30N 32°34' W 117°46'4 7.7
2017-Jul-17 02:00N 32°30' W 117°47'4 7.4
2017-Jul-17 01:30N 32°26' W 117°49'3 6.2
2017-Jul-17 01:00N 32°24' W 117°46'4 7.1
2017-Jul-17 00:30N 32°23' W 117°42'4 7.1
2017-Jul-17 00:00N 32°21' W 117°39'4 7.3
2017-Jul-16 23:30N 32°17' W 117°37'510.6
2017-Jul-16 23:00N 32°12' W 117°36'612.7
2017-Jul-16 22:30N 32°06' W 117°34'714.0
2017-Jul-16 22:01N 31°59' W 117°32'510.6
2017-Jul-16 21:30N 31°54' W 117°30'4 7.7
2017-Jul-16 21:01N 31°50' W 117°30'5307.2
2017-Jul-16 21:00N 31°48' W 117°24'816.8 180 / 121013.2 5.4 19.015.919.0
2017-Jul-16 20:30N 31°49' W 117°34'4 8.1
2017-Jul-16 20:00N 31°47' W 117°38'4 7.6
2017-Jul-16 19:30N 31°47' W 117°43'4 7.7
2017-Jul-16 19:00N 31°46' W 117°47'4 7.6
2017-Jul-16 18:30N 31°45' W 117°51'3 6.5
2017-Jul-16 18:01N 31°42' W 117°54'4 7.5
2017-Jul-16 17:30N 31°39' W 117°51'3 5.6
2017-Jul-16 17:01N 31°37' W 117°52'4 7.1
2017-Jul-16 16:30N 31°37' W 117°56'4 8.1
2017-Jul-16 16:01N 31°37' W 118°01'4 8.7
2017-Jul-16 15:30N 31°37' W 118°06'4 7.6
2017-Jul-16 15:01N 31°37' W 118°11'4 7.6
2017-Jul-16 14:30N 31°37' W 118°15'4 7.0
2017-Jul-16 14:00N 31°35' W 118°19'3 7.0
2017-Jul-16 13:31N 31°31' W 118°18'3 6.5
2017-Jul-16 13:00N 31°31' W 118°14'3 6.4
2017-Jul-16 12:31N 31°31' W 118°10'3 6.5
2017-Jul-16 12:01N 31°31' W 118°06'3 6.7
2017-Jul-16 11:30N 31°31' W 118°02'3 6.5
2017-Jul-16 11:00N 31°31' W 117°58'3 6.8
2017-Jul-16 10:30N 31°31' W 117°54'3 6.7
2017-Jul-16 10:01N 31°31' W 117°51'3 6.4
2017-Jul-16 09:30N 31°34' W 117°49'3 6.5
2017-Jul-16 09:01N 31°37' W 117°52'3 6.9
2017-Jul-16 08:30N 31°40' W 117°54'4 7.1
2017-Jul-16 08:00N 31°43' W 117°55'3 6.9
2017-Jul-16 07:30N 31°45' W 117°52'5 9.4
2017-Jul-16 07:00N 31°45' W 117°46'510.5
2017-Jul-16 06:30N 31°46' W 117°40'918.2
2017-Jul-16 06:00N 31°42' W 117°30'5110.6 320 / 101016.210.8 19.017.521.0
2017-Jul-16 05:57N 31°46' W 117°33'510.7
2017-Jul-16 05:31N 31°47' W 117°28'511.0
2017-Jul-16 05:01N 31°47' W 117°21'510.7
2017-Jul-16 04:30N 31°48' W 117°15'510.5
2017-Jul-16 04:01N 31°49' W 117°09'510.4
2017-Jul-16 03:30N 31°49' W 117°03'510.3
2017-Jul-16 03:00N 31°50' W 116°57'510.6
2017-Jul-16 02:31N 31°50' W 116°50'910.4
2017-Jul-16 01:41N 31°50' W 116°40'1 0.1
2017-Jul-15 13:54N 31°50' W 116°39'4 9.7
2017-Jul-15 13:30N 31°50' W 116°44'510.9
2017-Jul-15 13:00N 31°53' W 116°49'511.0
2017-Jul-15 12:30N 31°55' W 116°55'611.1
2017-Jul-15 12:01N 31°56' W 117°01'510.9
2017-Jul-15 11:30N 31°58' W 117°08'611.6
2017-Jul-15 11:01N 32°00' W 117°14'611.9
2017-Jul-15 10:31N 32°04' W 117°20'612.0
2017-Jul-15 10:00N 32°07' W 117°26'612.2
2017-Jul-15 09:31N 32°10' W 117°32'611.9
2017-Jul-15 09:00N 32°15' W 117°36'611.9
2017-Jul-15 08:31N 32°20' W 117°38'612.0
2017-Jul-15 08:00N 32°26' W 117°41'5277.6
2017-Jul-15 08:00N 32°24' W 117°36'1020.3 350 / 101018.310.8 20.016.918.0
2017-Jul-15 07:31N 32°31' W 117°43'611.9
2017-Jul-15 07:00N 32°37' W 117°46'612.3
2017-Jul-15 06:30N 32°43' W 117°49'612.5
2017-Jul-15 06:00N 32°48' W 117°52'612.5
2017-Jul-15 05:30N 32°54' W 117°54'612.6
2017-Jul-15 05:00N 33°00' W 117°57'612.6
2017-Jul-15 04:31N 33°06' W 117°60'612.5
2017-Jul-15 04:00N 33°12' W 118°03'612.0
2017-Jul-15 03:31N 33°17' W 118°05'612.2
2017-Jul-15 03:00N 33°23' W 118°08'612.6
2017-Jul-15 02:30N 33°29' W 118°10'612.8
2017-Jul-15 02:01N 33°35' W 118°13'611.7
2017-Jul-15 01:31N 33°41' W 118°12'4 8.5
2017-Jul-15 01:01N 33°45' W 118°11'0 0.3
2017-Jul-15 00:29N 33°45' W 118°11'0 0.0
2017-Jul-14 23:59N 33°45' W 118°11'0 0.0
2017-Jul-14 23:29N 33°45' W 118°11'0 0.0
2017-Jul-14 22:59N 33°45' W 118°11'0 0.0
2017-Jul-14 22:28N 33°45' W 118°11'0 0.0
2017-Jul-14 21:55N 33°45' W 118°11'0 0.0
2017-Jul-14 21:28N 33°45' W 118°11'0 0.0
2017-Jul-14 20:58N 33°45' W 118°11'0 0.0
2017-Jul-14 20:28N 33°45' W 118°11'0 0.0
2017-Jul-14 20:00N 33°45' W 118°11'0 0.0
2017-Jul-14 19:30N 33°45' W 118°11'0 0.0
2017-Jul-14 19:00N 33°45' W 118°11'0 0.0
2017-Jul-14 18:30N 33°45' W 118°11'0 0.0
2017-Jul-14 18:00N 33°45' W 118°11'0 0.0
2017-Jul-14 17:29N 33°45' W 118°11'0 0.0
2017-Jul-14 16:59N 33°45' W 118°11'0 0.0
2017-Jul-14 16:29N 33°45' W 118°11'0 0.0
2017-Jul-14 15:59N 33°45' W 118°11'0 0.0
2017-Jul-14 15:28N 33°45' W 118°11'0 0.0
2017-Jul-14 14:58N 33°45' W 118°11'0 0.0
2017-Jul-14 14:28N 33°45' W 118°11'0 0.0
2017-Jul-14 13:58N 33°45' W 118°11'0 0.0
2017-Jul-14 13:28N 33°45' W 118°11'0 0.0
2017-Jul-14 13:00N 33°45' W 118°11'0 0.0
2017-Jul-14 12:31N 33°45' W 118°11'1 1.3
2017-Jul-14 12:00N 33°44' W 118°11'4 8.4
2017-Jul-14 11:30N 33°40' W 118°11'5 9.2
2017-Jul-14 11:00N 33°36' W 118°10'611.2
2017-Jul-14 10:30N 33°30' W 118°08'815.5
2017-Jul-14 10:00N 33°23' W 118°04'815.8
2017-Jul-14 09:31N 33°16' W 118°01'815.7
2017-Jul-14 09:00N 33°09' W 117°57'815.1
2017-Jul-14 08:30N 33°01' W 117°54'612.5
2017-Jul-14 08:00N 32°55' W 117°52'713.5
2017-Jul-14 07:31N 32°49' W 117°51'714.1
2017-Jul-14 07:00N 32°42' W 117°49'714.2
2017-Jul-14 06:30N 32°36' W 117°45'714.4
2017-Jul-14 06:00N 32°30' W 117°41'7419.2
2017-Jul-14 06:00N 32°24' W 117°36'1 2.1 320 / 81018.310.8 18.014.822.0
2017-Jul-14 05:30N 32°23' W 117°37'714.4
2017-Jul-14 05:00N 32°17' W 117°33'714.8
2017-Jul-14 04:30N 32°11' W 117°27'714.8
2017-Jul-14 04:00N 32°07' W 117°20'714.5
2017-Jul-14 03:30N 32°03' W 117°12'714.4
2017-Jul-14 03:00N 31°60' W 117°05'5 0.3
2017-Jul-13 11:32N 31°57' W 116°60'0 9.4
2017-Jul-13 11:30N 31°57' W 117°00'4 8.3
2017-Jul-13 10:59N 31°58' W 117°05'4 8.6
2017-Jul-13 10:30N 31°60' W 117°10'510.1
2017-Jul-13 10:00N 32°01' W 117°15'510.4
2017-Jul-13 09:30N 32°04' W 117°20'510.5
2017-Jul-13 09:00N 32°06' W 117°26'510.6
2017-Jul-13 08:30N 32°08' W 117°32'510.4
2017-Jul-13 08:00N 32°13' W 117°35'510.3
2017-Jul-13 07:30N 32°17' W 117°38'510.5
2017-Jul-13 07:00N 32°22' W 117°41'510.5
2017-Jul-13 06:30N 32°27' W 117°43'510.5
2017-Jul-13 06:00N 32°31' W 117°46'510.5
2017-Jul-13 05:30N 32°36' W 117°49'510.5
2017-Jul-13 05:00N 32°40' W 117°53'510.6
2017-Jul-13 04:30N 32°45' W 117°56'510.6
2017-Jul-13 04:00N 32°49' W 117°60'510.0
2017-Jul-13 03:30N 32°54' W 118°00'5 9.3
2017-Jul-13 03:00N 32°58' W 118°03'5 9.7
2017-Jul-13 02:30N 33°03' W 118°05'510.0
2017-Jul-13 02:00N 33°07' W 118°08'510.0
2017-Jul-13 01:30N 33°12' W 118°10'5 9.8
2017-Jul-13 01:00N 33°16' W 118°13'4 8.8
2017-Jul-13 00:30N 33°19' W 118°17'3 4.9
2017-Jul-12 23:58N 33°21' W 118°19'0 0.0
2017-Jul-12 23:28N 33°21' W 118°19'0 0.1
2017-Jul-12 23:00N 33°21' W 118°19'0 0.0
2017-Jul-12 22:30N 33°21' W 118°19'0 0.0
2017-Jul-12 22:00N 33°21' W 118°19'0 0.0
2017-Jul-12 21:30N 33°21' W 118°19'0 0.0
2017-Jul-12 21:00N 33°21' W 118°19'0 0.0
2017-Jul-12 20:29N 33°21' W 118°19'63126.7
2017-Jul-12 20:00N 32°18' W 118°18'639865.4 340 / 51018.310.8
2017-Jul-12 19:59N 33°21' W 118°19'0 0.0
2017-Jul-12 19:26N 33°21' W 118°19'0 0.1
2017-Jul-12 18:59N 33°21' W 118°19'0 0.1
2017-Jul-12 18:28N 33°21' W 118°19'0 0.0
2017-Jul-12 17:58N 33°21' W 118°19'0 0.0
2017-Jul-12 17:28N 33°21' W 118°19'0 0.1
2017-Jul-12 16:58N 33°21' W 118°19'0 0.0
2017-Jul-12 16:28N 33°21' W 118°19'0 0.1
2017-Jul-12 16:00N 33°21' W 118°19'0 0.0
2017-Jul-12 15:30N 33°21' W 118°19'0 0.0
2017-Jul-12 14:57N 33°21' W 118°19'0 0.1
2017-Jul-12 14:00N 33°21' W 118°19'3 5.9
2017-Jul-12 13:30N 33°19' W 118°17'4 7.3
2017-Jul-12 13:00N 33°15' W 118°16'4 7.7
2017-Jul-12 12:31N 33°11' W 118°16'  
Track history (hours):
 
Tides and Currents Weather Stations Pressure Air Temp Water Temp Dewpoint Dewpoint Depression Visibility Wind Speed Wind Dir Waves Ship Positions

Inspiration

Operator: Carnival Cruise Lines

Last reported at 2017-Jul-22 12:30 UTC. Time now 2017-Jul-22 12:36 UTC.
Position N 31°56' W 116°58'.

Type: Ship. MMSI: 309484000.

Date/timePositionNaut miles runAvg speedWind from/ knotsBaromVisibWave heightAir tempDewpointWater temp
2017-Jul-22 12:30N 31°56' W 116°58'713.5
2017-Jul-22 12:00N 31°59' W 117°06'713.2
2017-Jul-22 11:30N 32°02' W 117°13'613.1
2017-Jul-22 11:01N 32°05' W 117°20'713.1
2017-Jul-22 10:30N 32°07' W 117°27'713.2
2017-Jul-22 10:00N 32°11' W 117°33'713.2
2017-Jul-22 09:31N 32°17' W 117°37'713.4
2017-Jul-22 09:00N 32°23' W 117°39'713.2
2017-Jul-22 08:30N 32°29' W 117°42'611.9
2017-Jul-22 08:00N 32°35' W 117°45'510.5
2017-Jul-22 07:30N 32°39' W 117°47'510.6
2017-Jul-22 07:00N 32°44' W 117°50'510.9
2017-Jul-22 06:30N 32°49' W 117°52'611.1
2017-Jul-22 06:00N 32°55' W 117°54'143.7
2017-Jul-22 06:00N 32°54' W 117°54'612.9 200 / 5 10.8 21.019.520.0
2017-Jul-22 05:31N 32°60' W 117°57'611.3
2017-Jul-22 05:01N 33°05' W 117°59'611.4
2017-Jul-22 04:31N 33°10' W 118°02'611.3
2017-Jul-22 04:01N 33°16' W 118°04'611.0
2017-Jul-22 03:31N 33°21' W 118°07'510.7
2017-Jul-22 03:01N 33°26' W 118°09'510.8
2017-Jul-22 02:31N 33°31' W 118°11'510.9
2017-Jul-22 02:00N 33°36' W 118°13'510.1
2017-Jul-22 01:30N 33°41' W 118°12'4 7.6
2017-Jul-22 01:00N 33°45' W 118°11'0 0.6
2017-Jul-22 00:30N 33°45' W 118°11'0 0.0
2017-Jul-22 00:00N 33°45' W 118°11'0 0.0
2017-Jul-21 23:26N 33°45' W 118°11'0 0.0
2017-Jul-21 22:59N 33°45' W 118°11'0 0.0
2017-Jul-21 22:29N 33°45' W 118°11'0 0.0
2017-Jul-21 21:59N 33°45' W 118°11'0 0.0
2017-Jul-21 21:29N 33°45' W 118°11'0 0.0
2017-Jul-21 20:58N 33°45' W 118°11'0 0.0
2017-Jul-21 20:25N 33°45' W 118°11'0 0.0
2017-Jul-21 19:55N 33°45' W 118°11'0 0.0
2017-Jul-21 19:22N 33°45' W 118°11'0 0.0
2017-Jul-21 18:36N 33°45' W 118°11'0 0.0
2017-Jul-21 18:30N 33°45' W 118°11'0 0.0
2017-Jul-21 18:00N 33°45' W 118°11'0 0.0
2017-Jul-21 17:24N 33°45' W 118°11'0 0.0
2017-Jul-21 17:00N 33°45' W 118°11'0 0.0
2017-Jul-21 16:29N 33°45' W 118°11'0 0.0
2017-Jul-21 15:59N 33°45' W 118°11'0 0.0
2017-Jul-21 15:23N 33°45' W 118°11'0 0.0
2017-Jul-21 14:59N 33°45' W 118°11'0 0.0
2017-Jul-21 14:29N 33°45' W 118°11'0 0.0
2017-Jul-21 13:58N 33°45' W 118°11'0 0.0
2017-Jul-21 13:28N 33°45' W 118°11'0 0.0
2017-Jul-21 12:58N 33°45' W 118°11'0 0.1
2017-Jul-21 12:30N 33°45' W 118°11'1 1.9
2017-Jul-21 12:00N 33°44' W 118°11'5 9.0
2017-Jul-21 11:30N 33°40' W 118°10'4 8.2
2017-Jul-21 11:00N 33°36' W 118°10'4 7.6
2017-Jul-21 10:30N 33°32' W 118°08'4 7.6
2017-Jul-21 10:01N 33°28' W 118°07'4 7.8
2017-Jul-21 09:30N 33°25' W 118°05'4 7.8
2017-Jul-21 09:01N 33°21' W 118°03'4 8.3
2017-Jul-21 08:30N 33°17' W 118°02'4 8.4
2017-Jul-21 08:01N 33°13' W 118°00'4 7.8
2017-Jul-21 07:30N 33°09' W 117°58'4 7.9
2017-Jul-21 07:00N 33°06' W 117°57'4 7.5
2017-Jul-21 06:30N 33°02' W 117°56'4 7.4
2017-Jul-21 06:00N 32°59' W 117°54'5288.7
2017-Jul-21 06:00N 32°54' W 117°54'2 3.6 300 / 121015.2 5.4 18.014.819.0
2017-Jul-21 05:30N 32°55' W 117°53'4 7.4
2017-Jul-21 05:00N 32°52' W 117°51'4 7.4
2017-Jul-21 04:31N 32°48' W 117°49'4 7.4
2017-Jul-21 04:00N 32°45' W 117°48'4 7.8
2017-Jul-21 03:30N 32°41' W 117°46'4 8.0
2017-Jul-21 03:00N 32°37' W 117°44'4 8.0
2017-Jul-21 02:30N 32°34' W 117°43'4 7.8
2017-Jul-21 02:00N 32°30' W 117°42'4 7.8
2017-Jul-21 01:30N 32°26' W 117°40'4 7.7
2017-Jul-21 01:00N 32°23' W 117°39'4 7.6
2017-Jul-21 00:30N 32°19' W 117°37'4 7.4
2017-Jul-21 00:00N 32°16' W 117°35'4 7.9
2017-Jul-20 23:30N 32°13' W 117°32'4 8.4
2017-Jul-20 23:00N 32°10' W 117°29'4 8.1
2017-Jul-20 22:30N 32°06' W 117°26'4 8.1
2017-Jul-20 22:00N 32°03' W 117°23'4 7.6
2017-Jul-20 21:30N 32°00' W 117°20'3 7.0
2017-Jul-20 21:00N 31°57' W 117°18'3 6.5
2017-Jul-20 20:30N 31°55' W 117°15'3 6.3
2017-Jul-20 20:00N 31°52' W 117°14'4 7.5
2017-Jul-20 19:30N 31°49' W 117°18'4 7.9
2017-Jul-20 19:00N 31°48' W 117°22'4 8.1
2017-Jul-20 18:30N 31°47' W 117°27'4 7.9
2017-Jul-20 18:00N 31°46' W 117°31'510.2
2017-Jul-20 17:30N 31°44' W 117°37'510.5
2017-Jul-20 17:00N 31°43' W 117°43'6361.5
2017-Jul-20 17:00N 31°42' W 117°36'1122.5 340 / 101018.3 5.4 19.015.919.0
2017-Jul-20 16:30N 31°41' W 117°49'510.3
2017-Jul-20 16:00N 31°40' W 117°55'510.2
2017-Jul-20 15:30N 31°38' W 118°00'4 7.6
2017-Jul-20 15:00N 31°37' W 118°05'7 7.1
2017-Jul-20 14:00N 31°35' W 118°12'4 7.2
2017-Jul-20 13:30N 31°34' W 118°17'3 5.5
2017-Jul-20 13:00N 31°31' W 118°17'3 6.9
2017-Jul-20 12:30N 31°31' W 118°13'3 7.0
2017-Jul-20 12:00N 31°31' W 118°09'4 7.1
2017-Jul-20 11:30N 31°31' W 118°05'4 7.4
2017-Jul-20 11:00N 31°31' W 118°00'4 7.7
2017-Jul-20 10:30N 31°31' W 117°56'4 7.9
2017-Jul-20 10:00N 31°31' W 117°51'4 7.7
2017-Jul-20 09:30N 31°35' W 117°50'4 8.4
2017-Jul-20 09:00N 31°38' W 117°53'4 8.2
2017-Jul-20 08:30N 31°41' W 117°55'4 7.3
2017-Jul-20 08:00N 31°45' W 117°53'4 7.8
2017-Jul-20 07:30N 31°45' W 117°49'5 9.8
2017-Jul-20 07:00N 31°46' W 117°43'510.6
2017-Jul-20 06:30N 31°46' W 117°37'510.9
2017-Jul-20 06:00N 31°47' W 117°31'510.7
2017-Jul-20 05:30N 31°47' W 117°24'510.6
2017-Jul-20 05:00N 31°48' W 117°18'6372.9
2017-Jul-20 05:00N 31°42' W 117°18'817.0 280 / 51018.310.8 20.016.920.0
2017-Jul-20 04:31N 31°48' W 117°12'510.3
2017-Jul-20 04:00N 31°49' W 117°06'510.3
2017-Jul-20 03:30N 31°49' W 116°60'610.3
2017-Jul-20 02:54N 31°50' W 116°53'410.5
2017-Jul-20 02:30N 31°50' W 116°48'510.2
2017-Jul-20 01:59N 31°50' W 116°42'2 0.2
2017-Jul-19 13:56N 31°50' W 116°39'4 9.2
2017-Jul-19 13:30N 31°50' W 116°43'510.0
2017-Jul-19 13:00N 31°53' W 116°48'5 9.6
2017-Jul-19 12:30N 31°55' W 116°53'5 9.6
2017-Jul-19 12:00N 31°56' W 116°59'510.1
2017-Jul-19 11:30N 31°57' W 117°04'510.0
2017-Jul-19 11:00N 31°59' W 117°10'4 8.6
2017-Jul-19 10:30N 31°60' W 117°15'4 8.0
2017-Jul-19 10:00N 32°01' W 117°19'4 8.7
2017-Jul-19 09:30N 32°04' W 117°23'4 8.9
2017-Jul-19 09:00N 32°07' W 117°28'4 8.5
2017-Jul-19 08:30N 32°09' W 117°32'5 9.2
2017-Jul-19 08:00N 32°13' W 117°35'5 9.8
2017-Jul-19 07:30N 32°17' W 117°38'5 9.8
2017-Jul-19 07:00N 32°21' W 117°40'5 9.7
2017-Jul-19 06:30N 32°26' W 117°43'5 9.6
2017-Jul-19 06:00N 32°30' W 117°45'5 9.4
2017-Jul-19 05:30N 32°34' W 117°48'5 9.3
2017-Jul-19 05:00N 32°38' W 117°50'5 9.7
2017-Jul-19 04:30N 32°43' W 117°53'5 9.8
2017-Jul-19 04:00N 32°47' W 117°56'5 9.9
2017-Jul-19 03:30N 32°51' W 117°58'510.0
2017-Jul-19 03:00N 32°56' W 118°01'510.2
2017-Jul-19 02:30N 33°01' W 118°03'510.2
2017-Jul-19 02:00N 33°05' W 118°06'510.1
2017-Jul-19 01:30N 33°09' W 118°09'510.0
2017-Jul-19 01:00N 33°14' W 118°12'5 9.9
2017-Jul-19 00:30N 33°18' W 118°15'4 8.7
2017-Jul-19 00:00N 33°21' W 118°19'0 0.3
2017-Jul-18 23:30N 33°21' W 118°19'0 0.0
2017-Jul-18 23:00N 33°21' W 118°19'0 0.1
2017-Jul-18 22:30N 33°21' W 118°19'0 0.1
2017-Jul-18 22:00N 33°21' W 118°19'0 0.0
2017-Jul-18 21:30N 33°21' W 118°19'0 0.1
2017-Jul-18 21:00N 33°21' W 118°19'0 0.0
2017-Jul-18 20:30N 33°21' W 118°19'0 0.0
2017-Jul-18 20:00N 33°21' W 118°19'0 0.0
2017-Jul-18 19:30N 33°21' W 118°19'0 0.0
2017-Jul-18 19:00N 33°21' W 118°19'0 0.0
2017-Jul-18 18:30N 33°21' W 118°19'0 0.1
2017-Jul-18 18:00N 33°21' W 118°19'3204.3
2017-Jul-18 18:00N 33°18' W 118°18'3 6.4 340 / 21018.310.8 23.018.523.0
2017-Jul-18 17:30N 33°21' W 118°19'0 0.0
2017-Jul-18 17:00N 33°21' W 118°19'0 0.1
2017-Jul-18 16:30N 33°21' W 118°19'0 0.1
2017-Jul-18 16:00N 33°21' W 118°19'0 0.0
2017-Jul-18 15:30N 33°21' W 118°19'0 0.0
2017-Jul-18 15:00N 33°21' W 118°19'0 0.1
2017-Jul-18 14:00N 33°21' W 118°19'3 6.4
2017-Jul-18 13:30N 33°18' W 118°17'4 7.9
2017-Jul-18 13:00N 33°14' W 118°16'4 8.3
2017-Jul-18 12:30N 33°10' W 118°16'4 8.1
2017-Jul-18 12:00N 33°06' W 118°15'4 8.0
2017-Jul-18 11:30N 33°03' W 118°12'4 8.3
2017-Jul-18 11:00N 32°60' W 118°09'4 8.3
2017-Jul-18 10:30N 32°56' W 118°07'4 8.3
2017-Jul-18 10:00N 32°53' W 118°04'4 8.1
2017-Jul-18 09:30N 32°50' W 118°01'4 7.5
2017-Jul-18 09:00N 32°47' W 117°58'4 7.2
2017-Jul-18 08:30N 32°49' W 117°54'4 7.8
2017-Jul-18 08:00N 32°53' W 117°55'4 8.2
2017-Jul-18 07:30N 32°57' W 117°57'4 8.3
2017-Jul-18 07:00N 33°01' W 117°58'4 8.1
2017-Jul-18 06:30N 33°04' W 118°00'4 8.1
2017-Jul-18 06:00N 33°08' W 118°02'8564.7
2017-Jul-18 06:00N 33°00' W 118°00'1225.3 190 / 51015.2 5.4
2017-Jul-18 05:30N 33°12' W 118°03'4 7.6
2017-Jul-18 05:00N 33°15' W 118°05'4 7.6
2017-Jul-18 04:30N 33°19' W 118°07'4 8.0
2017-Jul-18 04:00N 33°22' W 118°09'4 7.8
2017-Jul-18 03:30N 33°26' W 118°10'4 7.7
2017-Jul-18 03:00N 33°30' W 118°11'4 8.4
2017-Jul-18 02:30N 33°34' W 118°13'510.0
2017-Jul-18 02:00N 33°39' W 118°12'4 8.9
2017-Jul-18 01:30N 33°43' W 118°11'2 3.5
2017-Jul-18 00:59N 33°45' W 118°11'0 0.0
2017-Jul-18 00:29N 33°45' W 118°11'0 0.0
2017-Jul-17 23:59N 33°45' W 118°11'0 0.0
2017-Jul-17 23:29N 33°45' W 118°11'0 0.0
2017-Jul-17 22:54N 33°45' W 118°11'0 0.0
2017-Jul-17 22:28N 33°45' W 118°11'0 0.0
2017-Jul-17 21:52N 33°45' W 118°11'0 0.0
2017-Jul-17 21:28N 33°45' W 118°11'0 0.0
2017-Jul-17 20:58N 33°45' W 118°11'0 0.0
2017-Jul-17 20:30N 33°45' W 118°11'0 0.0
2017-Jul-17 20:00N 33°45' W 118°11'0 0.0
2017-Jul-17 19:30N 33°45' W 118°11'0 0.0
2017-Jul-17 19:00N 33°45' W 118°11'0 0.0
2017-Jul-17 18:05N 33°45' W 118°11'0 0.0
2017-Jul-17 17:59N 33°45' W 118°11'0 0.0
2017-Jul-17 17:29N 33°45' W 118°11'0 0.0
2017-Jul-17 16:59N 33°45' W 118°11'0 0.0
2017-Jul-17 16:29N 33°45' W 118°11'0 0.0
2017-Jul-17 15:59N 33°45' W 118°11'0 0.0
2017-Jul-17 15:19N 33°45' W 118°11'0 0.0
2017-Jul-17 14:58N 33°45' W 118°11'0 0.0
2017-Jul-17 14:28N 33°45' W 118°11'0 0.0
2017-Jul-17 13:58N 33°45' W 118°11'0 0.0
2017-Jul-17 13:24N 33°45' W 118°11'0 0.0
2017-Jul-17 12:57N 33°45' W 118°11'0 0.3
2017-Jul-17 12:29N 33°45' W 118°11'1 2.1
2017-Jul-17 12:00N 33°44' W 118°11'5 9.5
2017-Jul-17 11:28N 33°39' W 118°10'4 7.6
2017-Jul-17 11:00N 33°35' W 118°10'3 7.0
2017-Jul-17 10:30N 33°32' W 118°08'4 7.3
2017-Jul-17 10:00N 33°29' W 118°07'4 7.8
2017-Jul-17 09:30N 33°25' W 118°05'4 7.9
2017-Jul-17 09:00N 33°21' W 118°04'4257.9
2017-Jul-17 09:00N 33°24' W 118°00'713.5 180 / 101018.310.8 19.015.919.0
2017-Jul-17 08:30N 33°18' W 118°02'4 8.2
2017-Jul-17 08:00N 33°14' W 118°00'4 7.7
2017-Jul-17 07:30N 33°10' W 117°59'4 8.8
2017-Jul-17 07:00N 33°06' W 117°57'4 8.6
2017-Jul-17 06:30N 33°02' W 117°55'4 8.3
2017-Jul-17 06:00N 32°58' W 117°53'6390.1
2017-Jul-17 06:00N 32°54' W 117°48'3 6.5 120 / 51016.2 5.4 18.014.821.0
2017-Jul-17 05:30N 32°54' W 117°52'4 7.2
2017-Jul-17 05:00N 32°51' W 117°50'4 7.2
2017-Jul-17 04:30N 32°48' W 117°49'4 7.2
2017-Jul-17 04:00N 32°44' W 117°47'4 7.1
2017-Jul-17 03:30N 32°41' W 117°46'4 7.5
2017-Jul-17 03:00N 32°37' W 117°45'4 7.6
2017-Jul-17 02:30N 32°34' W 117°46'4 7.7
2017-Jul-17 02:00N 32°30' W 117°47'4 7.4
2017-Jul-17 01:30N 32°26' W 117°49'3 6.2
2017-Jul-17 01:00N 32°24' W 117°46'4 7.1
2017-Jul-17 00:30N 32°23' W 117°42'4 7.1
2017-Jul-17 00:00N 32°21' W 117°39'4 7.3
2017-Jul-16 23:30N 32°17' W 117°37'510.6
2017-Jul-16 23:00N 32°12' W 117°36'612.7
2017-Jul-16 22:30N 32°06' W 117°34'714.0
2017-Jul-16 22:01N 31°59' W 117°32'510.6
2017-Jul-16 21:30N 31°54' W 117°30'4 7.7
2017-Jul-16 21:01N 31°50' W 117°30'5307.2
2017-Jul-16 21:00N 31°48' W 117°24'816.8 180 / 121013.2 5.4 19.015.919.0
2017-Jul-16 20:30N 31°49' W 117°34'4 8.1
2017-Jul-16 20:00N 31°47' W 117°38'4 7.6
2017-Jul-16 19:30N 31°47' W 117°43'4 7.7
2017-Jul-16 19:00N 31°46' W 117°47'4 7.6
2017-Jul-16 18:30N 31°45' W 117°51'3 6.5
2017-Jul-16 18:01N 31°42' W 117°54'4 7.5
2017-Jul-16 17:30N 31°39' W 117°51'3 5.6
2017-Jul-16 17:01N 31°37' W 117°52'4 7.1
2017-Jul-16 16:30N 31°37' W 117°56'4 8.1
2017-Jul-16 16:01N 31°37' W 118°01'4 8.7
2017-Jul-16 15:30N 31°37' W 118°06'4 7.6
2017-Jul-16 15:01N 31°37' W 118°11'4 7.6
2017-Jul-16 14:30N 31°37' W 118°15'4 7.0
2017-Jul-16 14:00N 31°35' W 118°19'3 7.0
2017-Jul-16 13:31N 31°31' W 118°18'3 6.5
2017-Jul-16 13:00N 31°31' W 118°14'3 6.4
2017-Jul-16 12:31N 31°31' W 118°10'3 6.5
2017-Jul-16 12:01N 31°31' W 118°06'3 6.7
2017-Jul-16 11:30N 31°31' W 118°02'3 6.5
2017-Jul-16 11:00N 31°31' W 117°58'3 6.8
2017-Jul-16 10:30N 31°31' W 117°54'3 6.7
2017-Jul-16 10:01N 31°31' W 117°51'3 6.4
2017-Jul-16 09:30N 31°34' W 117°49'3 6.5
2017-Jul-16 09:01N 31°37' W 117°52'3 6.9
2017-Jul-16 08:30N 31°40' W 117°54'4 7.1
2017-Jul-16 08:00N 31°43' W 117°55'3 6.9
2017-Jul-16 07:30N 31°45' W 117°52'5 9.4
2017-Jul-16 07:00N 31°45' W 117°46'510.5
2017-Jul-16 06:30N 31°46' W 117°40'918.2
2017-Jul-16 06:00N 31°42' W 117°30'5110.6 320 / 101016.210.8 19.017.521.0
2017-Jul-16 05:57N 31°46' W 117°33'510.7
2017-Jul-16 05:31N 31°47' W 117°28'511.0
2017-Jul-16 05:01N 31°47' W 117°21'510.7
2017-Jul-16 04:30N 31°48' W 117°15'510.5
2017-Jul-16 04:01N 31°49' W 117°09'510.4
2017-Jul-16 03:30N 31°49' W 117°03'510.3
2017-Jul-16 03:00N 31°50' W 116°57'510.6
2017-Jul-16 02:31N 31°50' W 116°50'910.4
2017-Jul-16 01:41N 31°50' W 116°40'1 0.1
2017-Jul-15 13:54N 31°50' W 116°39'4 9.7
2017-Jul-15 13:30N 31°50' W 116°44'510.9
2017-Jul-15 13:00N 31°53' W 116°49'511.0
2017-Jul-15 12:30N 31°55' W 116°55'611.1
2017-Jul-15 12:01N 31°56' W 117°01'510.9
2017-Jul-15 11:30N 31°58' W 117°08'611.6
2017-Jul-15 11:01N 32°00' W 117°14'611.9
2017-Jul-15 10:31N 32°04' W 117°20'612.0
2017-Jul-15 10:00N 32°07' W 117°26'612.2
2017-Jul-15 09:31N 32°10' W 117°32'611.9
2017-Jul-15 09:00N 32°15' W 117°36'611.9
2017-Jul-15 08:31N 32°20' W 117°38'612.0
2017-Jul-15 08:00N 32°26' W 117°41'5277.6
2017-Jul-15 08:00N 32°24' W 117°36'1020.3 350 / 101018.310.8 20.016.918.0
2017-Jul-15 07:31N 32°31' W 117°43'611.9
2017-Jul-15 07:00N 32°37' W 117°46'612.3
2017-Jul-15 06:30N 32°43' W 117°49'612.5
2017-Jul-15 06:00N 32°48' W 117°52'612.5
2017-Jul-15 05:30N 32°54' W 117°54'612.6
2017-Jul-15 05:00N 33°00' W 117°57'612.6
2017-Jul-15 04:31N 33°06' W 117°60'612.5
2017-Jul-15 04:00N 33°12' W 118°03'612.0
2017-Jul-15 03:31N 33°17' W 118°05'612.2
2017-Jul-15 03:00N 33°23' W 118°08'612.6
2017-Jul-15 02:30N 33°29' W 118°10'612.8
2017-Jul-15 02:01N 33°35' W 118°13'611.7
2017-Jul-15 01:31N 33°41' W 118°12'4 8.5
2017-Jul-15 01:01N 33°45' W 118°11'0 0.3
2017-Jul-15 00:29N 33°45' W 118°11'0 0.0
2017-Jul-14 23:59N 33°45' W 118°11'0 0.0
2017-Jul-14 23:29N 33°45' W 118°11'0 0.0
2017-Jul-14 22:59N 33°45' W 118°11'0 0.0
2017-Jul-14 22:28N 33°45' W 118°11'0 0.0
2017-Jul-14 21:55N 33°45' W 118°11'0 0.0
2017-Jul-14 21:28N 33°45' W 118°11'0 0.0
2017-Jul-14 20:58N 33°45' W 118°11'0 0.0
2017-Jul-14 20:28N 33°45' W 118°11'0 0.0
2017-Jul-14 20:00N 33°45' W 118°11'0 0.0
2017-Jul-14 19:30N 33°45' W 118°11'0 0.0
2017-Jul-14 19:00N 33°45' W 118°11'0 0.0
2017-Jul-14 18:30N 33°45' W 118°11'0 0.0
2017-Jul-14 18:00N 33°45' W 118°11'0 0.0
2017-Jul-14 17:29N 33°45' W 118°11'0 0.0
2017-Jul-14 16:59N 33°45' W 118°11'0 0.0
2017-Jul-14 16:29N 33°45' W 118°11'0 0.0
2017-Jul-14 15:59N 33°45' W 118°11'0 0.0
2017-Jul-14 15:28N 33°45' W 118°11'0 0.0
2017-Jul-14 14:58N 33°45' W 118°11'0 0.0
2017-Jul-14 14:28N 33°45' W 118°11'0 0.0
2017-Jul-14 13:58N 33°45' W 118°11'0 0.0
2017-Jul-14 13:28N 33°45' W 118°11'0 0.0
2017-Jul-14 13:00N 33°45' W 118°11'0 0.0
2017-Jul-14 12:31N 33°45' W 118°11'1 1.3
2017-Jul-14 12:00N 33°44' W 118°11'4 8.4
2017-Jul-14 11:30N 33°40' W 118°11'5 9.2
2017-Jul-14 11:00N 33°36' W 118°10'611.2
2017-Jul-14 10:30N 33°30' W 118°08'815.5
2017-Jul-14 10:00N 33°23' W 118°04'815.8
2017-Jul-14 09:31N 33°16' W 118°01'815.7
2017-Jul-14 09:00N 33°09' W 117°57'815.1
2017-Jul-14 08:30N 33°01' W 117°54'612.5
2017-Jul-14 08:00N 32°55' W 117°52'713.5
2017-Jul-14 07:31N 32°49' W 117°51'714.1
2017-Jul-14 07:00N 32°42' W 117°49'714.2
2017-Jul-14 06:30N 32°36' W 117°45'714.4
2017-Jul-14 06:00N 32°30' W 117°41'7419.2
2017-Jul-14 06:00N 32°24' W 117°36'1 2.1 320 / 81018.310.8 18.014.822.0
2017-Jul-14 05:30N 32°23' W 117°37'714.4
2017-Jul-14 05:00N 32°17' W 117°33'714.8
2017-Jul-14 04:30N 32°11' W 117°27'714.8
2017-Jul-14 04:00N 32°07' W 117°20'714.5
2017-Jul-14 03:30N 32°03' W 117°12'714.4
2017-Jul-14 03:00N 31°60' W 117°05'5 0.3
2017-Jul-13 11:32N 31°57' W 116°60'0 9.4
2017-Jul-13 11:30N 31°57' W 117°00'4 8.3
2017-Jul-13 10:59N 31°58' W 117°05'4 8.6
2017-Jul-13 10:30N 31°60' W 117°10'510.1
2017-Jul-13 10:00N 32°01' W 117°15'510.4
2017-Jul-13 09:30N 32°04' W 117°20'510.5
2017-Jul-13 09:00N 32°06' W 117°26'510.6
2017-Jul-13 08:30N 32°08' W 117°32'510.4
2017-Jul-13 08:00N 32°13' W 117°35'510.3
2017-Jul-13 07:30N 32°17' W 117°38'510.5
2017-Jul-13 07:00N 32°22' W 117°41'510.5
2017-Jul-13 06:30N 32°27' W 117°43'510.5
2017-Jul-13 06:00N 32°31' W 117°46'510.5
2017-Jul-13 05:30N 32°36' W 117°49'510.5
2017-Jul-13 05:00N 32°40' W 117°53'510.6
2017-Jul-13 04:30N 32°45' W 117°56'510.6
2017-Jul-13 04:00N 32°49' W 117°60'510.0
2017-Jul-13 03:30N 32°54' W 118°00'5 9.3
2017-Jul-13 03:00N 32°58' W 118°03'5 9.7
2017-Jul-13 02:30N 33°03' W 118°05'510.0
2017-Jul-13 02:00N 33°07' W 118°08'510.0
2017-Jul-13 01:30N 33°12' W 118°10'5 9.8
2017-Jul-13 01:00N 33°16' W 118°13'4 8.8
2017-Jul-13 00:30N 33°19' W 118°17'3 4.9
2017-Jul-12 23:58N 33°21' W 118°19'0 0.0
2017-Jul-12 23:28N 33°21' W 118°19'0 0.1
2017-Jul-12 23:00N 33°21' W 118°19'0 0.0
2017-Jul-12 22:30N 33°21' W 118°19'0 0.0
2017-Jul-12 22:00N 33°21' W 118°19'0 0.0
2017-Jul-12 21:30N 33°21' W 118°19'0 0.0
2017-Jul-12 21:00N 33°21' W 118°19'0 0.0
2017-Jul-12 20:29N 33°21' W 118°19'63126.7
2017-Jul-12 20:00N 32°18' W 118°18'639865.4 340 / 51018.310.8
2017-Jul-12 19:59N 33°21' W 118°19'0 0.0
2017-Jul-12 19:26N 33°21' W 118°19'0 0.1
2017-Jul-12 18:59N 33°21' W 118°19'0 0.1
2017-Jul-12 18:28N 33°21' W 118°19'0 0.0
2017-Jul-12 17:58N 33°21' W 118°19'0 0.0
2017-Jul-12 17:28N 33°21' W 118°19'0 0.1
2017-Jul-12 16:58N 33°21' W 118°19'0 0.0
2017-Jul-12 16:28N 33°21' W 118°19'0 0.1
2017-Jul-12 16:00N 33°21' W 118°19'0 0.0
2017-Jul-12 15:30N 33°21' W 118°19'0 0.0
2017-Jul-12 14:57N 33°21' W 118°19'0 0.1
2017-Jul-12 14:00N 33°21' W 118°19'3 5.9
2017-Jul-12 13:30N 33°19' W 118°17'4 7.3
2017-Jul-12 13:00N 33°15' W 118°16'4 7.7
2017-Jul-12 12:31N 33°11' W 118°16'  

Dump ship's entire track history